sensor_id;sensor_type;location;lat;lon;timestamp;P1;durP1;ratioP1;P2;durP2;ratioP2
9418;SDS011;4748;50.802;7.132;2022-11-04T04:32:04;6.70;;;0.20;;
9418;SDS011;4748;50.802;7.132;2022-11-04T04:34:31;0.10;;;0.10;;
9418;SDS011;4748;50.802;7.132;2022-11-04T04:39:48;2.53;;;0.10;;
9418;SDS011;4748;50.802;7.132;2022-11-04T04:42:36;2.83;;;0.20;;
9418;SDS011;4748;50.802;7.132;2022-11-04T04:47:48;0.33;;;0.10;;
9418;SDS011;4748;50.802;7.132;2022-11-04T04:50:16;0.40;;;0.20;;
9418;SDS011;4748;50.802;7.132;2022-11-04T04:52:44;0.10;;;0.10;;
9418;SDS011;4748;50.802;7.132;2022-11-04T04:55:12;0.97;;;0.10;;
9418;SDS011;4748;50.802;7.132;2022-11-04T04:57:38;2.00;;;0.47;;
9418;SDS011;4748;50.802;7.132;2022-11-04T05:00:04;0.20;;;0.20;;
9418;SDS011;4748;50.802;7.132;2022-11-04T05:02:31;6.00;;;0.30;;
9418;SDS011;4748;50.802;7.132;2022-11-04T05:04:57;6.43;;;0.30;;
9418;SDS011;4748;50.802;7.132;2022-11-04T05:07:23;0.50;;;0.10;;
9418;SDS011;4748;50.802;7.132;2022-11-04T05:09:49;0.20;;;0.20;;
9418;SDS011;4748;50.802;7.132;2022-11-04T05:12:14;1.70;;;0.17;;
9418;SDS011;4748;50.802;7.132;2022-11-04T05:14:39;0.20;;;0.20;;
9418;SDS011;4748;50.802;7.132;2022-11-04T05:17:05;0.00;;;0.00;;
9418;SDS011;4748;50.802;7.132;2022-11-04T05:19:30;2.00;;;0.33;;
9418;SDS011;4748;50.802;7.132;2022-11-04T05:21:55;0.20;;;0.20;;
9418;SDS011;4748;50.802;7.132;2022-11-04T05:24:21;4.83;;;0.60;;
9418;SDS011;4748;50.802;7.132;2022-11-04T05:26:46;9.83;;;1.70;;
9418;SDS011;4748;50.802;7.132;2022-11-04T05:29:11;1.60;;;1.17;;
9418;SDS011;4748;50.802;7.132;2022-11-04T05:31:37;1.80;;;1.03;;
9418;SDS011;4748;50.802;7.132;2022-11-04T05:34:03;6.83;;;0.93;;
9418;SDS011;4748;50.802;7.132;2022-11-04T05:36:29;1.17;;;0.10;;
9418;SDS011;4748;50.802;7.132;2022-11-04T05:38:57;0.30;;;0.30;;
9418;SDS011;4748;50.802;7.132;2022-11-04T05:41:22;0.10;;;0.10;;
9418;SDS011;4748;50.802;7.132;2022-11-04T05:43:51;1.47;;;0.40;;
9418;SDS011;4748;50.802;7.132;2022-11-04T05:46:21;0.30;;;0.30;;
9418;SDS011;4748;50.802;7.132;2022-11-04T05:48:46;3.40;;;0.53;;
9418;SDS011;4748;50.802;7.132;2022-11-04T05:51:12;2.97;;;0.77;;
9418;SDS011;4748;50.802;7.132;2022-11-04T05:53:39;5.23;;;0.97;;
9418;SDS011;4748;50.802;7.132;2022-11-04T05:56:05;2.30;;;0.77;;
9418;SDS011;4748;50.802;7.132;2022-11-04T05:58:30;2.40;;;0.50;;
9418;SDS011;4748;50.802;7.132;2022-11-04T06:01:09;1.50;;;0.47;;
9418;SDS011;4748;50.802;7.132;2022-11-04T06:03:36;1.70;;;0.37;;
9418;SDS011;4748;50.802;7.132;2022-11-04T06:06:01;0.47;;;0.30;;
9418;SDS011;4748;50.802;7.132;2022-11-04T06:08:26;1.90;;;0.27;;
9418;SDS011;4748;50.802;7.132;2022-11-04T06:10:52;0.30;;;0.30;;
9418;SDS011;4748;50.802;7.132;2022-11-04T06:13:17;0.93;;;0.60;;
9418;SDS011;4748;50.802;7.132;2022-11-04T06:15:42;1.47;;;0.70;;
9418;SDS011;4748;50.802;7.132;2022-11-04T06:18:08;0.17;;;0.17;;
9418;SDS011;4748;50.802;7.132;2022-11-04T06:20:33;0.03;;;0.03;;
9418;SDS011;4748;50.802;7.132;2022-11-04T06:22:58;0.30;;;0.30;;
9418;SDS011;4748;50.802;7.132;2022-11-04T06:25:24;3.03;;;0.20;;
9418;SDS011;4748;50.802;7.132;2022-11-04T06:27:49;1.70;;;0.53;;
9418;SDS011;4748;50.802;7.132;2022-11-04T06:30:14;2.20;;;0.50;;
9418;SDS011;4748;50.802;7.132;2022-11-04T06:32:40;0.13;;;0.13;;
9418;SDS011;4748;50.802;7.132;2022-11-04T06:35:05;0.10;;;0.10;;
9418;SDS011;4748;50.802;7.132;2022-11-04T06:37:32;0.63;;;0.20;;
9418;SDS011;4748;50.802;7.132;2022-11-04T06:39:58;1.30;;;0.30;;
9418;SDS011;4748;50.802;7.132;2022-11-04T06:42:24;0.27;;;0.27;;
9418;SDS011;4748;50.802;7.132;2022-11-04T06:44:50;0.80;;;0.20;;
9418;SDS011;4748;50.802;7.132;2022-11-04T06:47:16;0.30;;;0.30;;
9418;SDS011;4748;50.802;7.132;2022-11-04T06:49:42;0.97;;;0.43;;
9418;SDS011;4748;50.802;7.132;2022-11-04T06:52:07;7.93;;;0.37;;
9418;SDS011;4748;50.802;7.132;2022-11-04T06:54:32;2.87;;;0.40;;
9418;SDS011;4748;50.802;7.132;2022-11-04T06:56:58;0.27;;;0.20;;
9418;SDS011;4748;50.802;7.132;2022-11-04T06:59:24;1.60;;;0.30;;
9418;SDS011;4748;50.802;7.132;2022-11-04T07:01:49;2.13;;;0.30;;
9418;SDS011;4748;50.802;7.132;2022-11-04T07:04:15;0.87;;;0.20;;
9418;SDS011;4748;50.802;7.132;2022-11-04T07:06:41;5.30;;;0.63;;
9418;SDS011;4748;50.802;7.132;2022-11-04T07:09:08;1.10;;;0.30;;
9418;SDS011;4748;50.802;7.132;2022-11-04T07:11:34;0.43;;;0.13;;
9418;SDS011;4748;50.802;7.132;2022-11-04T07:14:00;0.50;;;0.50;;
9418;SDS011;4748;50.802;7.132;2022-11-04T07:16:25;0.40;;;0.40;;
9418;SDS011;4748;50.802;7.132;2022-11-04T07:18:52;3.73;;;0.57;;
9418;SDS011;4748;50.802;7.132;2022-11-04T07:21:18;1.03;;;0.30;;
9418;SDS011;4748;50.802;7.132;2022-11-04T07:23:43;0.30;;;0.20;;
9418;SDS011;4748;50.802;7.132;2022-11-04T07:26:09;0.30;;;0.30;;
9418;SDS011;4748;50.802;7.132;2022-11-04T07:28:35;6.13;;;0.30;;
9418;SDS011;4748;50.802;7.132;2022-11-04T07:31:04;0.10;;;0.10;;
9418;SDS011;4748;50.802;7.132;2022-11-04T07:33:31;6.40;;;0.50;;
9418;SDS011;4748;50.802;7.132;2022-11-04T07:35:57;0.10;;;0.10;;
9418;SDS011;4748;50.802;7.132;2022-11-04T07:38:23;0.47;;;0.43;;
9418;SDS011;4748;50.802;7.132;2022-11-04T07:40:49;2.33;;;0.87;;
9418;SDS011;4748;50.802;7.132;2022-11-04T07:43:15;8.67;;;0.83;;
9418;SDS011;4748;50.802;7.132;2022-11-04T07:45:40;0.27;;;0.27;;
9418;SDS011;4748;50.802;7.132;2022-11-04T07:48:06;0.20;;;0.20;;
9418;SDS011;4748;50.802;7.132;2022-11-04T07:50:31;0.67;;;0.30;;
9418;SDS011;4748;50.802;7.132;2022-11-04T07:52:58;1.07;;;0.97;;
9418;SDS011;4748;50.802;7.132;2022-11-04T07:55:24;4.27;;;1.03;;
9418;SDS011;4748;50.802;7.132;2022-11-04T07:57:49;0.83;;;0.30;;
9418;SDS011;4748;50.802;7.132;2022-11-04T08:00:14;1.43;;;0.30;;
9418;SDS011;4748;50.802;7.132;2022-11-04T08:02:43;0.40;;;0.40;;
9418;SDS011;4748;50.802;7.132;2022-11-04T08:05:10;2.00;;;0.67;;
9418;SDS011;4748;50.802;7.132;2022-11-04T08:07:36;1.63;;;0.40;;
9418;SDS011;4748;50.802;7.132;2022-11-04T08:10:02;2.50;;;0.43;;
9418;SDS011;4748;50.802;7.132;2022-11-04T08:12:27;4.43;;;0.77;;
9418;SDS011;4748;50.802;7.132;2022-11-04T08:14:53;0.43;;;0.30;;
9418;SDS011;4748;50.802;7.132;2022-11-04T08:17:18;5.43;;;0.70;;
9418;SDS011;4748;50.802;7.132;2022-11-04T08:19:44;3.60;;;0.40;;
9418;SDS011;4748;50.802;7.132;2022-11-04T08:22:10;1.90;;;0.30;;
9418;SDS011;4748;50.802;7.132;2022-11-04T08:24:35;1.17;;;0.47;;
9418;SDS011;4748;50.802;7.132;2022-11-04T08:27:01;0.40;;;0.40;;
9418;SDS011;4748;50.802;7.132;2022-11-04T08:29:28;0.70;;;0.70;;
9418;SDS011;4748;50.802;7.132;2022-11-04T08:31:54;2.27;;;0.77;;
9418;SDS011;4748;50.802;7.132;2022-11-04T08:34:19;7.77;;;1.13;;
9418;SDS011;4748;50.802;7.132;2022-11-04T08:36:44;0.80;;;0.70;;
9418;SDS011;4748;50.802;7.132;2022-11-04T08:39:10;8.60;;;0.97;;
9418;SDS011;4748;50.802;7.132;2022-11-04T08:41:38;1.83;;;0.80;;
9418;SDS011;4748;50.802;7.132;2022-11-04T08:44:05;1.07;;;0.60;;
9418;SDS011;4748;50.802;7.132;2022-11-04T08:46:33;1.43;;;0.57;;
9418;SDS011;4748;50.802;7.132;2022-11-04T08:49:01;0.53;;;0.53;;
9418;SDS011;4748;50.802;7.132;2022-11-04T08:51:28;1.03;;;0.70;;
9418;SDS011;4748;50.802;7.132;2022-11-04T08:53:55;0.20;;;0.20;;
9418;SDS011;4748;50.802;7.132;2022-11-04T08:58:48;2.00;;;0.97;;
9418;SDS011;4748;50.802;7.132;2022-11-04T09:01:14;0.50;;;0.27;;
9418;SDS011;4748;50.802;7.132;2022-11-04T09:03:39;5.50;;;1.63;;
9418;SDS011;4748;50.802;7.132;2022-11-04T09:06:06;0.60;;;0.60;;
9418;SDS011;4748;50.802;7.132;2022-11-04T09:08:33;0.90;;;0.90;;
9418;SDS011;4748;50.802;7.132;2022-11-04T09:11:05;2.47;;;2.17;;
9418;SDS011;4748;50.802;7.132;2022-11-04T09:13:32;9.40;;;3.00;;
9418;SDS011;4748;50.802;7.132;2022-11-04T09:15:58;2.07;;;0.80;;
9418;SDS011;4748;50.802;7.132;2022-11-04T09:18:23;3.93;;;2.13;;
9418;SDS011;4748;50.802;7.132;2022-11-04T09:20:48;1.33;;;1.23;;
9418;SDS011;4748;50.802;7.132;2022-11-04T09:23:14;3.00;;;1.50;;
9418;SDS011;4748;50.802;7.132;2022-11-04T09:25:39;7.87;;;2.20;;
9418;SDS011;4748;50.802;7.132;2022-11-04T09:28:04;12.87;;;1.63;;
9418;SDS011;4748;50.802;7.132;2022-11-04T09:30:30;0.80;;;0.50;;
9418;SDS011;4748;50.802;7.132;2022-11-04T09:32:56;1.80;;;0.97;;
9418;SDS011;4748;50.802;7.132;2022-11-04T09:35:22;3.03;;;1.30;;
9418;SDS011;4748;50.802;7.132;2022-11-04T09:37:48;0.97;;;0.50;;
9418;SDS011;4748;50.802;7.132;2022-11-04T09:40:15;4.00;;;0.57;;
9418;SDS011;4748;50.802;7.132;2022-11-04T09:42:52;4.97;;;0.50;;
9418;SDS011;4748;50.802;7.132;2022-11-04T09:45:28;5.80;;;0.77;;
9418;SDS011;4748;50.802;7.132;2022-11-04T09:48:07;0.53;;;0.50;;
9418;SDS011;4748;50.802;7.132;2022-11-04T09:50:44;6.90;;;0.50;;
9418;SDS011;4748;50.802;7.132;2022-11-04T09:58:41;0.60;;;0.30;;
9418;SDS011;4748;50.802;7.132;2022-11-04T10:10:16;0.30;;;0.30;;
9418;SDS011;4748;50.802;7.132;2022-11-04T10:13:12;0.63;;;0.50;;
9418;SDS011;4748;50.802;7.132;2022-11-04T10:18:45;1.80;;;0.50;;
9418;SDS011;4748;50.802;7.132;2022-11-04T10:26:43;3.87;;;0.40;;
9418;SDS011;4748;50.802;7.132;2022-11-04T10:29:15;3.60;;;0.50;;
9418;SDS011;4748;50.802;7.132;2022-11-04T10:31:46;3.40;;;0.40;;
9418;SDS011;4748;50.802;7.132;2022-11-04T10:36:59;2.00;;;0.50;;
9418;SDS011;4748;50.802;7.132;2022-11-04T10:39:29;1.17;;;0.30;;
9418;SDS011;4748;50.802;7.132;2022-11-04T10:41:59;1.47;;;0.20;;
9418;SDS011;4748;50.802;7.132;2022-11-04T10:44:26;3.07;;;0.27;;
9418;SDS011;4748;50.802;7.132;2022-11-04T10:46:59;3.03;;;0.30;;
9418;SDS011;4748;50.802;7.132;2022-11-04T10:52:02;3.40;;;0.30;;
9418;SDS011;4748;50.802;7.132;2022-11-04T10:54:29;0.77;;;0.13;;
9418;SDS011;4748;50.802;7.132;2022-11-04T10:57:03;4.43;;;0.43;;
9418;SDS011;4748;50.802;7.132;2022-11-04T10:59:30;0.20;;;0.20;;
9418;SDS011;4748;50.802;7.132;2022-11-04T11:02:11;0.73;;;0.20;;
9418;SDS011;4748;50.802;7.132;2022-11-04T11:04:37;1.73;;;0.23;;
9418;SDS011;4748;50.802;7.132;2022-11-04T11:07:08;0.20;;;0.20;;
9418;SDS011;4748;50.802;7.132;2022-11-04T11:09:36;1.43;;;0.20;;
9418;SDS011;4748;50.802;7.132;2022-11-04T11:14:40;0.63;;;0.23;;
9418;SDS011;4748;50.802;7.132;2022-11-04T11:20:02;1.03;;;0.13;;
9418;SDS011;4748;50.802;7.132;2022-11-04T11:22:43;0.20;;;0.20;;
9418;SDS011;4748;50.802;7.132;2022-11-04T11:27:38;0.90;;;0.30;;
9418;SDS011;4748;50.802;7.132;2022-11-04T11:30:05;2.73;;;0.50;;
9418;SDS011;4748;50.802;7.132;2022-11-04T11:32:43;0.47;;;0.30;;
9418;SDS011;4748;50.802;7.132;2022-11-04T11:35:15;1.70;;;0.30;;
9418;SDS011;4748;50.802;7.132;2022-11-04T11:37:44;1.13;;;0.40;;
9418;SDS011;4748;50.802;7.132;2022-11-04T11:40:27;0.10;;;0.10;;
9418;SDS011;4748;50.802;7.132;2022-11-04T11:43:01;1.37;;;0.20;;
9418;SDS011;4748;50.802;7.132;2022-11-04T11:45:28;0.20;;;0.10;;
9418;SDS011;4748;50.802;7.132;2022-11-04T11:47:55;0.63;;;0.27;;
9418;SDS011;4748;50.802;7.132;2022-11-04T11:50:27;4.27;;;0.40;;
9418;SDS011;4748;50.802;7.132;2022-11-04T11:53:13;1.17;;;0.30;;
9418;SDS011;4748;50.802;7.132;2022-11-04T11:55:47;0.17;;;0.10;;
9418;SDS011;4748;50.802;7.132;2022-11-04T12:01:13;1.30;;;0.10;;
9418;SDS011;4748;50.802;7.132;2022-11-04T12:03:42;0.10;;;0.10;;
9418;SDS011;4748;50.802;7.132;2022-11-04T12:09:01;1.03;;;0.20;;
9418;SDS011;4748;50.802;7.132;2022-11-04T12:14:19;1.70;;;0.10;;
9418;SDS011;4748;50.802;7.132;2022-11-04T12:19:21;3.70;;;0.40;;
9418;SDS011;4748;50.802;7.132;2022-11-04T12:27:44;1.40;;;0.43;;
9418;SDS011;4748;50.802;7.132;2022-11-04T12:30:23;1.33;;;0.47;;
9418;SDS011;4748;50.802;7.132;2022-11-04T12:33:05;1.50;;;0.10;;
9418;SDS011;4748;50.802;7.132;2022-11-04T12:38:35;1.40;;;0.20;;
9418;SDS011;4748;50.802;7.132;2022-11-04T12:43:53;0.40;;;0.40;;
9418;SDS011;4748;50.802;7.132;2022-11-04T12:46:38;0.10;;;0.10;;
9418;SDS011;4748;50.802;7.132;2022-11-04T12:49:50;1.50;;;0.20;;
9418;SDS011;4748;50.802;7.132;2022-11-04T12:58:13;0.40;;;0.20;;
9418;SDS011;4748;50.802;7.132;2022-11-04T13:01:12;0.10;;;0.10;;
9418;SDS011;4748;50.802;7.132;2022-11-04T13:06:37;0.10;;;0.10;;
9418;SDS011;4748;50.802;7.132;2022-11-04T13:09:17;2.03;;;0.30;;
9418;SDS011;4748;50.802;7.132;2022-11-04T13:11:57;0.10;;;0.10;;
9418;SDS011;4748;50.802;7.132;2022-11-04T13:14:53;0.30;;;0.30;;
9418;SDS011;4748;50.802;7.132;2022-11-04T13:17:21;0.40;;;0.20;;
9418;SDS011;4748;50.802;7.132;2022-11-04T13:22:29;0.30;;;0.13;;
9418;SDS011;4748;50.802;7.132;2022-11-04T13:25:04;2.77;;;0.23;;
9418;SDS011;4748;50.802;7.132;2022-11-04T13:27:38;2.93;;;0.50;;
9418;SDS011;4748;50.802;7.132;2022-11-04T13:38:44;0.90;;;0.47;;
9418;SDS011;4748;50.802;7.132;2022-11-04T13:44:29;1.03;;;0.30;;
9418;SDS011;4748;50.802;7.132;2022-11-04T13:47:02;0.77;;;0.77;;
9418;SDS011;4748;50.802;7.132;2022-11-04T13:49:32;0.57;;;0.57;;
9418;SDS011;4748;50.802;7.132;2022-11-04T13:52:08;0.60;;;0.60;;
9418;SDS011;4748;50.802;7.132;2022-11-04T13:54:39;1.07;;;0.27;;
9418;SDS011;4748;50.802;7.132;2022-11-04T13:57:21;0.83;;;0.43;;
9418;SDS011;4748;50.802;7.132;2022-11-04T14:00:05;2.93;;;0.70;;
9418;SDS011;4748;50.802;7.132;2022-11-04T14:02:40;0.70;;;0.70;;
9418;SDS011;4748;50.802;7.132;2022-11-04T14:16:02;0.53;;;0.40;;
9418;SDS011;4748;50.802;7.132;2022-11-04T14:18:37;2.03;;;0.50;;
9418;SDS011;4748;50.802;7.132;2022-11-04T14:23:46;0.40;;;0.40;;
9418;SDS011;4748;50.802;7.132;2022-11-04T14:26:17;2.00;;;0.30;;
9418;SDS011;4748;50.802;7.132;2022-11-04T14:28:48;1.40;;;0.40;;
9418;SDS011;4748;50.802;7.132;2022-11-04T14:31:34;0.77;;;0.40;;
9418;SDS011;4748;50.802;7.132;2022-11-04T14:34:02;1.67;;;0.40;;
9418;SDS011;4748;50.802;7.132;2022-11-04T14:36:30;1.30;;;0.33;;
9418;SDS011;4748;50.802;7.132;2022-11-04T14:44:46;2.50;;;0.23;;
9418;SDS011;4748;50.802;7.132;2022-11-04T14:47:01;2.93;;;0.27;;
9418;SDS011;4748;50.802;7.132;2022-11-04T14:49:45;0.60;;;0.37;;
9418;SDS011;4748;50.802;7.132;2022-11-04T14:52:26;3.00;;;0.67;;
9418;SDS011;4748;50.802;7.132;2022-11-04T14:55:16;1.60;;;0.30;;
9418;SDS011;4748;50.802;7.132;2022-11-04T15:03:37;0.80;;;0.40;;
9418;SDS011;4748;50.802;7.132;2022-11-04T15:06:05;1.07;;;0.50;;
9418;SDS011;4748;50.802;7.132;2022-11-04T15:08:33;0.57;;;0.30;;
9418;SDS011;4748;50.802;7.132;2022-11-04T15:11:02;0.80;;;0.23;;
9418;SDS011;4748;50.802;7.132;2022-11-04T15:13:34;0.63;;;0.60;;
9418;SDS011;4748;50.802;7.132;2022-11-04T15:16:03;0.80;;;0.70;;
9418;SDS011;4748;50.802;7.132;2022-11-04T15:18:35;2.00;;;0.40;;
9418;SDS011;4748;50.802;7.132;2022-11-04T15:21:03;5.40;;;0.30;;
9418;SDS011;4748;50.802;7.132;2022-11-04T15:23:30;0.30;;;0.27;;
9418;SDS011;4748;50.802;7.132;2022-11-04T15:25:59;0.50;;;0.30;;
9418;SDS011;4748;50.802;7.132;2022-11-04T15:28:31;0.80;;;0.47;;
9418;SDS011;4748;50.802;7.132;2022-11-04T15:31:05;0.83;;;0.70;;
9418;SDS011;4748;50.802;7.132;2022-11-04T15:33:41;2.23;;;1.13;;
9418;SDS011;4748;50.802;7.132;2022-11-04T15:36:10;1.10;;;1.03;;
9418;SDS011;4748;50.802;7.132;2022-11-04T15:38:43;5.83;;;1.17;;
9418;SDS011;4748;50.802;7.132;2022-11-04T15:41:12;1.10;;;0.97;;
9418;SDS011;4748;50.802;7.132;2022-11-04T15:43:58;0.83;;;0.60;;
9418;SDS011;4748;50.802;7.132;2022-11-04T15:46:24;2.47;;;0.50;;
9418;SDS011;4748;50.802;7.132;2022-11-04T15:48:59;1.40;;;1.07;;
9418;SDS011;4748;50.802;7.132;2022-11-04T15:51:25;0.87;;;0.70;;
9418;SDS011;4748;50.802;7.132;2022-11-04T15:54:01;4.13;;;0.83;;
9418;SDS011;4748;50.802;7.132;2022-11-04T15:56:31;3.27;;;0.57;;
9418;SDS011;4748;50.802;7.132;2022-11-04T15:58:59;2.00;;;0.83;;
9418;SDS011;4748;50.802;7.132;2022-11-04T16:01:25;4.93;;;1.07;;
9418;SDS011;4748;50.802;7.132;2022-11-04T16:03:56;5.63;;;1.13;;
9418;SDS011;4748;50.802;7.132;2022-11-04T16:06:31;3.73;;;1.00;;
9418;SDS011;4748;50.802;7.132;2022-11-04T16:09:20;0.50;;;0.50;;
9418;SDS011;4748;50.802;7.132;2022-11-04T16:14:48;0.93;;;0.73;;
9418;SDS011;4748;50.802;7.132;2022-11-04T16:17:14;4.17;;;1.33;;
9418;SDS011;4748;50.802;7.132;2022-11-04T16:19:40;1.97;;;1.30;;
9418;SDS011;4748;50.802;7.132;2022-11-04T16:22:10;1.63;;;1.23;;
9418;SDS011;4748;50.802;7.132;2022-11-04T16:24:44;4.17;;;1.30;;
9418;SDS011;4748;50.802;7.132;2022-11-04T16:27:12;1.10;;;1.10;;
9418;SDS011;4748;50.802;7.132;2022-11-04T16:29:42;1.07;;;1.07;;
9418;SDS011;4748;50.802;7.132;2022-11-04T16:32:16;2.97;;;1.43;;
9418;SDS011;4748;50.802;7.132;2022-11-04T16:34:48;2.73;;;0.80;;
9418;SDS011;4748;50.802;7.132;2022-11-04T16:37:15;0.80;;;0.80;;
9418;SDS011;4748;50.802;7.132;2022-11-04T16:39:42;0.83;;;0.83;;
9418;SDS011;4748;50.802;7.132;2022-11-04T16:42:09;6.40;;;0.70;;
9418;SDS011;4748;50.802;7.132;2022-11-04T16:44:36;0.50;;;0.50;;
9418;SDS011;4748;50.802;7.132;2022-11-04T16:47:02;1.30;;;0.93;;
9418;SDS011;4748;50.802;7.132;2022-11-04T16:49:28;1.43;;;1.17;;
9418;SDS011;4748;50.802;7.132;2022-11-04T16:51:54;1.10;;;0.80;;
9418;SDS011;4748;50.802;7.132;2022-11-04T16:54:24;3.30;;;1.20;;
9418;SDS011;4748;50.802;7.132;2022-11-04T16:56:51;1.40;;;0.70;;
9418;SDS011;4748;50.802;7.132;2022-11-04T16:59:18;2.13;;;0.90;;
9418;SDS011;4748;50.802;7.132;2022-11-04T17:01:44;0.57;;;0.57;;
9418;SDS011;4748;50.802;7.132;2022-11-04T17:04:09;0.97;;;0.63;;
9418;SDS011;4748;50.802;7.132;2022-11-04T17:06:35;2.00;;;0.70;;
9418;SDS011;4748;50.802;7.132;2022-11-04T17:09:01;2.10;;;1.03;;
9418;SDS011;4748;50.802;7.132;2022-11-04T17:11:27;0.87;;;0.87;;
9418;SDS011;4748;50.802;7.132;2022-11-04T17:13:55;2.40;;;0.80;;
9418;SDS011;4748;50.802;7.132;2022-11-04T17:16:20;0.60;;;0.60;;
9418;SDS011;4748;50.802;7.132;2022-11-04T17:18:46;1.27;;;0.63;;
9418;SDS011;4748;50.802;7.132;2022-11-04T17:21:12;0.70;;;0.70;;
9418;SDS011;4748;50.802;7.132;2022-11-04T17:23:41;1.20;;;0.90;;
9418;SDS011;4748;50.802;7.132;2022-11-04T17:26:08;1.53;;;1.13;;
9418;SDS011;4748;50.802;7.132;2022-11-04T17:28:34;3.30;;;1.40;;
9418;SDS011;4748;50.802;7.132;2022-11-04T17:31:00;2.67;;;1.00;;
9418;SDS011;4748;50.802;7.132;2022-11-04T17:33:26;1.23;;;1.20;;
9418;SDS011;4748;50.802;7.132;2022-11-04T17:35:51;1.00;;;0.90;;
9418;SDS011;4748;50.802;7.132;2022-11-04T17:38:18;1.97;;;1.87;;
9418;SDS011;4748;50.802;7.132;2022-11-04T17:40:44;2.57;;;1.40;;
9418;SDS011;4748;50.802;7.132;2022-11-04T17:43:28;5.43;;;3.10;;
9418;SDS011;4748;50.802;7.132;2022-11-04T17:46:12;4.20;;;2.53;;
9418;SDS011;4748;50.802;7.132;2022-11-04T17:48:57;2.37;;;2.23;;
9418;SDS011;4748;50.802;7.132;2022-11-04T17:51:22;2.43;;;2.33;;
9418;SDS011;4748;50.802;7.132;2022-11-04T17:53:48;3.10;;;1.87;;
9418;SDS011;4748;50.802;7.132;2022-11-04T17:56:18;2.97;;;1.40;;
9418;SDS011;4748;50.802;7.132;2022-11-04T17:58:45;2.03;;;1.93;;
9418;SDS011;4748;50.802;7.132;2022-11-04T18:01:12;5.93;;;2.83;;
9418;SDS011;4748;50.802;7.132;2022-11-04T18:03:38;3.33;;;2.97;;
9418;SDS011;4748;50.802;7.132;2022-11-04T18:06:04;3.67;;;2.83;;
9418;SDS011;4748;50.802;7.132;2022-11-04T18:08:30;6.83;;;4.23;;
9418;SDS011;4748;50.802;7.132;2022-11-04T18:10:57;4.10;;;3.13;;
9418;SDS011;4748;50.802;7.132;2022-11-04T18:13:23;6.43;;;4.33;;
9418;SDS011;4748;50.802;7.132;2022-11-04T18:15:51;4.87;;;3.97;;
9418;SDS011;4748;50.802;7.132;2022-11-04T18:18:17;5.00;;;3.90;;
9418;SDS011;4748;50.802;7.132;2022-11-04T18:20:43;4.30;;;3.47;;
9418;SDS011;4748;50.802;7.132;2022-11-04T18:23:08;4.77;;;3.47;;
9418;SDS011;4748;50.802;7.132;2022-11-04T18:25:34;5.13;;;3.17;;
9418;SDS011;4748;50.802;7.132;2022-11-04T18:27:59;4.83;;;3.27;;
9418;SDS011;4748;50.802;7.132;2022-11-04T18:30:25;3.53;;;2.80;;
9418;SDS011;4748;50.802;7.132;2022-11-04T18:32:50;2.93;;;2.77;;
9418;SDS011;4748;50.802;7.132;2022-11-04T18:35:16;6.87;;;3.43;;
9418;SDS011;4748;50.802;7.132;2022-11-04T18:37:42;6.37;;;4.30;;
9418;SDS011;4748;50.802;7.132;2022-11-04T18:40:07;6.87;;;4.47;;
9418;SDS011;4748;50.802;7.132;2022-11-04T18:42:33;6.00;;;3.77;;
9418;SDS011;4748;50.802;7.132;2022-11-04T18:45:00;7.23;;;3.93;;
9418;SDS011;4748;50.802;7.132;2022-11-04T18:47:25;6.63;;;4.63;;
9418;SDS011;4748;50.802;7.132;2022-11-04T18:49:50;4.53;;;3.10;;
9418;SDS011;4748;50.802;7.132;2022-11-04T18:52:16;4.27;;;2.73;;
9418;SDS011;4748;50.802;7.132;2022-11-04T18:54:42;5.37;;;3.13;;
9418;SDS011;4748;50.802;7.132;2022-11-04T18:57:08;2.53;;;2.17;;
9418;SDS011;4748;50.802;7.132;2022-11-04T18:59:37;3.67;;;3.10;;
9418;SDS011;4748;50.802;7.132;2022-11-04T19:02:03;3.40;;;2.40;;
9418;SDS011;4748;50.802;7.132;2022-11-04T19:04:29;3.47;;;2.73;;
9418;SDS011;4748;50.802;7.132;2022-11-04T19:06:55;4.33;;;3.30;;
9418;SDS011;4748;50.802;7.132;2022-11-04T19:09:21;3.40;;;2.97;;
9418;SDS011;4748;50.802;7.132;2022-11-04T19:11:46;4.77;;;3.03;;
9418;SDS011;4748;50.802;7.132;2022-11-04T19:14:13;3.67;;;2.50;;
9418;SDS011;4748;50.802;7.132;2022-11-04T19:16:43;3.80;;;2.90;;
9418;SDS011;4748;50.802;7.132;2022-11-04T19:19:10;9.37;;;3.03;;
9418;SDS011;4748;50.802;7.132;2022-11-04T19:21:40;6.53;;;4.17;;
9418;SDS011;4748;50.802;7.132;2022-11-04T19:24:05;3.27;;;2.93;;
9418;SDS011;4748;50.802;7.132;2022-11-04T19:26:32;4.67;;;2.20;;
9418;SDS011;4748;50.802;7.132;2022-11-04T19:28:59;2.70;;;2.50;;
9418;SDS011;4748;50.802;7.132;2022-11-04T19:31:29;3.07;;;2.67;;
9418;SDS011;4748;50.802;7.132;2022-11-04T19:33:59;5.57;;;2.57;;
9418;SDS011;4748;50.802;7.132;2022-11-04T19:36:29;2.90;;;2.63;;
9418;SDS011;4748;50.802;7.132;2022-11-04T19:38:56;8.07;;;2.70;;
9418;SDS011;4748;50.802;7.132;2022-11-04T19:41:21;4.13;;;2.67;;
9418;SDS011;4748;50.802;7.132;2022-11-04T19:44:07;3.33;;;2.00;;
9418;SDS011;4748;50.802;7.132;2022-11-04T19:46:34;2.40;;;2.20;;
9418;SDS011;4748;50.802;7.132;2022-11-04T19:49:00;22.80;;;2.60;;
9418;SDS011;4748;50.802;7.132;2022-11-04T19:51:26;16.57;;;6.90;;
9418;SDS011;4748;50.802;7.132;2022-11-04T19:53:52;6.23;;;4.17;;
9418;SDS011;4748;50.802;7.132;2022-11-04T19:56:18;5.20;;;3.37;;
9418;SDS011;4748;50.802;7.132;2022-11-04T19:58:45;7.30;;;4.77;;
9418;SDS011;4748;50.802;7.132;2022-11-04T20:01:11;6.40;;;4.40;;
9418;SDS011;4748;50.802;7.132;2022-11-04T20:03:38;11.10;;;5.10;;
9418;SDS011;4748;50.802;7.132;2022-11-04T20:06:07;5.43;;;3.93;;
9418;SDS011;4748;50.802;7.132;2022-11-04T20:08:35;7.80;;;4.40;;
9418;SDS011;4748;50.802;7.132;2022-11-04T20:11:02;4.97;;;3.10;;
9418;SDS011;4748;50.802;7.132;2022-11-04T20:13:29;8.27;;;3.67;;
9418;SDS011;4748;50.802;7.132;2022-11-04T20:16:21;9.43;;;3.13;;
9418;SDS011;4748;50.802;7.132;2022-11-04T20:18:48;2.57;;;2.37;;
9418;SDS011;4748;50.802;7.132;2022-11-04T20:21:15;7.20;;;2.77;;
9418;SDS011;4748;50.802;7.132;2022-11-04T20:23:42;6.20;;;3.00;;
9418;SDS011;4748;50.802;7.132;2022-11-04T20:26:19;12.63;;;3.47;;
9418;SDS011;4748;50.802;7.132;2022-11-04T20:28:48;9.53;;;3.27;;
9418;SDS011;4748;50.802;7.132;2022-11-04T20:31:15;3.40;;;2.63;;
9418;SDS011;4748;50.802;7.132;2022-11-04T20:33:42;2.30;;;2.17;;
9418;SDS011;4748;50.802;7.132;2022-11-04T20:36:08;3.60;;;3.20;;
9418;SDS011;4748;50.802;7.132;2022-11-04T20:38:35;4.80;;;3.43;;
9418;SDS011;4748;50.802;7.132;2022-11-04T20:41:02;4.57;;;2.77;;
9418;SDS011;4748;50.802;7.132;2022-11-04T20:43:29;17.53;;;3.30;;
9418;SDS011;4748;50.802;7.132;2022-11-04T20:46:00;3.03;;;2.60;;
9418;SDS011;4748;50.802;7.132;2022-11-04T20:48:29;5.03;;;3.50;;
9418;SDS011;4748;50.802;7.132;2022-11-04T20:50:55;6.40;;;3.37;;
9418;SDS011;4748;50.802;7.132;2022-11-04T20:53:20;5.50;;;3.97;;
9418;SDS011;4748;50.802;7.132;2022-11-04T20:55:47;6.70;;;4.67;;
9418;SDS011;4748;50.802;7.132;2022-11-04T20:58:12;3.57;;;3.10;;
9418;SDS011;4748;50.802;7.132;2022-11-04T21:00:38;13.53;;;3.90;;
9418;SDS011;4748;50.802;7.132;2022-11-04T21:03:03;9.13;;;3.80;;
9418;SDS011;4748;50.802;7.132;2022-11-04T21:05:28;8.90;;;3.70;;
9418;SDS011;4748;50.802;7.132;2022-11-04T21:07:54;4.73;;;3.47;;
9418;SDS011;4748;50.802;7.132;2022-11-04T21:10:19;10.10;;;3.77;;
9418;SDS011;4748;50.802;7.132;2022-11-04T21:12:44;7.07;;;3.77;;
9418;SDS011;4748;50.802;7.132;2022-11-04T21:15:10;4.30;;;3.70;;
9418;SDS011;4748;50.802;7.132;2022-11-04T21:17:55;9.90;;;4.47;;
9418;SDS011;4748;50.802;7.132;2022-11-04T21:20:20;6.63;;;3.77;;
9418;SDS011;4748;50.802;7.132;2022-11-04T21:22:46;7.90;;;4.33;;
9418;SDS011;4748;50.802;7.132;2022-11-04T21:25:11;5.87;;;4.23;;
9418;SDS011;4748;50.802;7.132;2022-11-04T21:27:36;9.93;;;4.00;;
9418;SDS011;4748;50.802;7.132;2022-11-04T21:30:02;12.23;;;4.43;;
9418;SDS011;4748;50.802;7.132;2022-11-04T21:32:27;6.73;;;3.53;;
9418;SDS011;4748;50.802;7.132;2022-11-04T21:34:54;10.97;;;4.20;;
9418;SDS011;4748;50.802;7.132;2022-11-04T21:37:19;6.77;;;4.53;;
9418;SDS011;4748;50.802;7.132;2022-11-04T21:39:45;9.37;;;4.90;;
9418;SDS011;4748;50.802;7.132;2022-11-04T21:42:10;10.03;;;4.80;;
9418;SDS011;4748;50.802;7.132;2022-11-04T21:44:35;8.73;;;4.73;;
9418;SDS011;4748;50.802;7.132;2022-11-04T21:47:01;13.47;;;5.50;;
9418;SDS011;4748;50.802;7.132;2022-11-04T21:49:26;5.47;;;4.57;;
9418;SDS011;4748;50.802;7.132;2022-11-04T21:51:51;13.93;;;5.43;;
9418;SDS011;4748;50.802;7.132;2022-11-04T21:54:16;13.30;;;5.87;;